sensor_id;sensor_type;location;lat;lon;timestamp;P1;durP1;ratioP1;P2;durP2;ratioP2
5591;SDS011;2818;49.790;9.958;2022-11-24T00:01:14;9.00;;;3.63;;
5591;SDS011;2818;49.790;9.958;2022-11-24T00:03:43;8.10;;;3.40;;
5591;SDS011;2818;49.790;9.958;2022-11-24T00:06:12;7.27;;;3.10;;
5591;SDS011;2818;49.790;9.958;2022-11-24T00:08:41;4.30;;;3.30;;
5591;SDS011;2818;49.790;9.958;2022-11-24T00:11:14;7.93;;;3.40;;
5591;SDS011;2818;49.790;9.958;2022-11-24T00:13:43;5.13;;;2.90;;
5591;SDS011;2818;49.790;9.958;2022-11-24T00:16:17;6.70;;;3.00;;
5591;SDS011;2818;49.790;9.958;2022-11-24T00:18:47;8.90;;;3.70;;
5591;SDS011;2818;49.790;9.958;2022-11-24T00:21:16;3.97;;;2.80;;
5591;SDS011;2818;49.790;9.958;2022-11-24T00:23:44;11.70;;;3.07;;
5591;SDS011;2818;49.790;9.958;2022-11-24T00:26:16;10.80;;;3.93;;
5591;SDS011;2818;49.790;9.958;2022-11-24T00:28:43;6.10;;;3.37;;
5591;SDS011;2818;49.790;9.958;2022-11-24T00:31:18;8.50;;;3.50;;
5591;SDS011;2818;49.790;9.958;2022-11-24T00:33:46;10.77;;;3.20;;
5591;SDS011;2818;49.790;9.958;2022-11-24T00:36:14;9.97;;;3.47;;
5591;SDS011;2818;49.790;9.958;2022-11-24T00:38:42;6.80;;;3.30;;
5591;SDS011;2818;49.790;9.958;2022-11-24T00:41:09;7.43;;;3.20;;
5591;SDS011;2818;49.790;9.958;2022-11-24T00:43:36;9.63;;;4.07;;
5591;SDS011;2818;49.790;9.958;2022-11-24T00:46:03;8.00;;;3.00;;
5591;SDS011;2818;49.790;9.958;2022-11-24T00:48:30;6.10;;;3.20;;
5591;SDS011;2818;49.790;9.958;2022-11-24T00:50:58;8.83;;;3.20;;
5591;SDS011;2818;49.790;9.958;2022-11-24T00:53:27;10.87;;;3.43;;
5591;SDS011;2818;49.790;9.958;2022-11-24T00:55:54;8.80;;;3.10;;
5591;SDS011;2818;49.790;9.958;2022-11-24T00:58:22;7.30;;;3.20;;
5591;SDS011;2818;49.790;9.958;2022-11-24T01:00:50;13.07;;;3.40;;
5591;SDS011;2818;49.790;9.958;2022-11-24T01:03:18;9.10;;;3.47;;
5591;SDS011;2818;49.790;9.958;2022-11-24T01:05:46;15.70;;;3.60;;
5591;SDS011;2818;49.790;9.958;2022-11-24T01:08:14;8.20;;;2.87;;
5591;SDS011;2818;49.790;9.958;2022-11-24T01:10:47;6.07;;;2.70;;
5591;SDS011;2818;49.790;9.958;2022-11-24T01:13:14;16.20;;;6.00;;
5591;SDS011;2818;49.790;9.958;2022-11-24T01:15:41;19.43;;;5.90;;
5591;SDS011;2818;49.790;9.958;2022-11-24T01:18:08;21.67;;;6.53;;
5591;SDS011;2818;49.790;9.958;2022-11-24T01:20:35;21.00;;;5.50;;
5591;SDS011;2818;49.790;9.958;2022-11-24T01:23:02;7.47;;;3.37;;
5591;SDS011;2818;49.790;9.958;2022-11-24T01:25:29;14.20;;;4.57;;
5591;SDS011;2818;49.790;9.958;2022-11-24T01:27:56;9.30;;;3.20;;
5591;SDS011;2818;49.790;9.958;2022-11-24T01:30:23;11.30;;;3.40;;
5591;SDS011;2818;49.790;9.958;2022-11-24T01:32:50;10.00;;;3.20;;
5591;SDS011;2818;49.790;9.958;2022-11-24T01:35:17;14.17;;;3.90;;
5591;SDS011;2818;49.790;9.958;2022-11-24T01:37:44;5.37;;;3.20;;
5591;SDS011;2818;49.790;9.958;2022-11-24T01:40:10;12.03;;;3.73;;
5591;SDS011;2818;49.790;9.958;2022-11-24T01:42:48;8.23;;;3.33;;
5591;SDS011;2818;49.790;9.958;2022-11-24T01:45:25;14.30;;;3.53;;
5591;SDS011;2818;49.790;9.958;2022-11-24T01:47:57;7.77;;;2.67;;
5591;SDS011;2818;49.790;9.958;2022-11-24T01:50:25;8.87;;;3.23;;
5591;SDS011;2818;49.790;9.958;2022-11-24T01:52:53;13.10;;;3.17;;
5591;SDS011;2818;49.790;9.958;2022-11-24T01:55:23;12.50;;;3.43;;
5591;SDS011;2818;49.790;9.958;2022-11-24T01:58:17;10.50;;;3.40;;
5591;SDS011;2818;49.790;9.958;2022-11-24T02:00:44;8.93;;;3.97;;
5591;SDS011;2818;49.790;9.958;2022-11-24T02:03:12;6.37;;;3.30;;
5591;SDS011;2818;49.790;9.958;2022-11-24T02:08:20;7.93;;;3.27;;
5591;SDS011;2818;49.790;9.958;2022-11-24T02:10:55;5.53;;;3.20;;
5591;SDS011;2818;49.790;9.958;2022-11-24T02:13:22;13.70;;;3.40;;
5591;SDS011;2818;49.790;9.958;2022-11-24T02:15:51;8.27;;;3.03;;
5591;SDS011;2818;49.790;9.958;2022-11-24T02:18:18;7.00;;;3.10;;
5591;SDS011;2818;49.790;9.958;2022-11-24T02:20:45;11.13;;;3.47;;
5591;SDS011;2818;49.790;9.958;2022-11-24T02:25:46;7.57;;;3.60;;
5591;SDS011;2818;49.790;9.958;2022-11-24T02:28:17;10.87;;;3.40;;
5591;SDS011;2818;49.790;9.958;2022-11-24T02:30:46;11.90;;;3.90;;
5591;SDS011;2818;49.790;9.958;2022-11-24T02:33:14;14.47;;;4.33;;
5591;SDS011;2818;49.790;9.958;2022-11-24T02:35:41;6.80;;;3.17;;
5591;SDS011;2818;49.790;9.958;2022-11-24T02:38:10;10.73;;;3.70;;
5591;SDS011;2818;49.790;9.958;2022-11-24T02:40:39;10.40;;;3.97;;
5591;SDS011;2818;49.790;9.958;2022-11-24T02:43:09;14.33;;;3.60;;
5591;SDS011;2818;49.790;9.958;2022-11-24T02:45:39;3.87;;;3.03;;
5591;SDS011;2818;49.790;9.958;2022-11-24T02:48:06;10.77;;;3.80;;
5591;SDS011;2818;49.790;9.958;2022-11-24T02:50:33;10.50;;;3.77;;
5591;SDS011;2818;49.790;9.958;2022-11-24T02:53:00;9.50;;;3.80;;
5591;SDS011;2818;49.790;9.958;2022-11-24T02:55:27;22.43;;;4.60;;
5591;SDS011;2818;49.790;9.958;2022-11-24T02:57:54;13.07;;;4.00;;
5591;SDS011;2818;49.790;9.958;2022-11-24T03:00:21;15.13;;;3.80;;
5591;SDS011;2818;49.790;9.958;2022-11-24T03:02:48;18.13;;;3.70;;
5591;SDS011;2818;49.790;9.958;2022-11-24T03:05:15;17.30;;;4.13;;
5591;SDS011;2818;49.790;9.958;2022-11-24T03:07:42;9.37;;;3.70;;
5591;SDS011;2818;49.790;9.958;2022-11-24T03:10:09;11.10;;;4.00;;
5591;SDS011;2818;49.790;9.958;2022-11-24T03:12:36;18.63;;;4.67;;
5591;SDS011;2818;49.790;9.958;2022-11-24T03:15:04;14.13;;;4.27;;
5591;SDS011;2818;49.790;9.958;2022-11-24T03:17:31;16.70;;;4.03;;
5591;SDS011;2818;49.790;9.958;2022-11-24T03:19:58;15.47;;;4.10;;
5591;SDS011;2818;49.790;9.958;2022-11-24T03:22:30;10.40;;;3.40;;
5591;SDS011;2818;49.790;9.958;2022-11-24T03:24:57;19.60;;;4.60;;
5591;SDS011;2818;49.790;9.958;2022-11-24T03:27:24;15.20;;;5.50;;
5591;SDS011;2818;49.790;9.958;2022-11-24T03:29:51;18.70;;;7.10;;
5591;SDS011;2818;49.790;9.958;2022-11-24T03:32:18;18.33;;;6.30;;
5591;SDS011;2818;49.790;9.958;2022-11-24T03:34:45;31.60;;;6.60;;
5591;SDS011;2818;49.790;9.958;2022-11-24T03:37:12;20.83;;;6.07;;
5591;SDS011;2818;49.790;9.958;2022-11-24T03:39:39;21.90;;;5.03;;
5591;SDS011;2818;49.790;9.958;2022-11-24T03:42:06;13.87;;;5.53;;
5591;SDS011;2818;49.790;9.958;2022-11-24T03:44:33;13.27;;;4.80;;
5591;SDS011;2818;49.790;9.958;2022-11-24T03:47:00;10.83;;;4.40;;
5591;SDS011;2818;49.790;9.958;2022-11-24T03:49:27;14.63;;;4.10;;
5591;SDS011;2818;49.790;9.958;2022-11-24T03:51:54;16.07;;;3.90;;
5591;SDS011;2818;49.790;9.958;2022-11-24T03:54:21;17.90;;;4.30;;
5591;SDS011;2818;49.790;9.958;2022-11-24T03:56:48;10.97;;;3.37;;
5591;SDS011;2818;49.790;9.958;2022-11-24T03:59:15;14.43;;;4.43;;
5591;SDS011;2818;49.790;9.958;2022-11-24T04:01:43;14.30;;;4.83;;
5591;SDS011;2818;49.790;9.958;2022-11-24T04:04:10;24.33;;;4.27;;
5591;SDS011;2818;49.790;9.958;2022-11-24T04:06:38;15.80;;;4.10;;
5591;SDS011;2818;49.790;9.958;2022-11-24T04:09:05;9.80;;;3.50;;
5591;SDS011;2818;49.790;9.958;2022-11-24T04:11:33;11.30;;;3.50;;
5591;SDS011;2818;49.790;9.958;2022-11-24T04:14:18;11.50;;;4.10;;
5591;SDS011;2818;49.790;9.958;2022-11-24T04:16:46;9.50;;;3.47;;
5591;SDS011;2818;49.790;9.958;2022-11-24T04:19:13;9.20;;;3.77;;
5591;SDS011;2818;49.790;9.958;2022-11-24T04:21:40;11.07;;;3.40;;
5591;SDS011;2818;49.790;9.958;2022-11-24T04:24:07;13.33;;;3.83;;
5591;SDS011;2818;49.790;9.958;2022-11-24T04:26:34;14.83;;;3.87;;
5591;SDS011;2818;49.790;9.958;2022-11-24T04:29:00;11.33;;;3.67;;
5591;SDS011;2818;49.790;9.958;2022-11-24T04:31:27;12.60;;;4.10;;
5591;SDS011;2818;49.790;9.958;2022-11-24T04:33:54;9.27;;;3.80;;
5591;SDS011;2818;49.790;9.958;2022-11-24T04:36:21;13.53;;;5.10;;
5591;SDS011;2818;49.790;9.958;2022-11-24T04:38:50;8.50;;;3.90;;
5591;SDS011;2818;49.790;9.958;2022-11-24T04:41:38;14.57;;;4.40;;
5591;SDS011;2818;49.790;9.958;2022-11-24T04:44:05;9.87;;;4.00;;
5591;SDS011;2818;49.790;9.958;2022-11-24T04:46:31;13.67;;;4.40;;
5591;SDS011;2818;49.790;9.958;2022-11-24T04:48:58;50.90;;;23.23;;
5591;SDS011;2818;49.790;9.958;2022-11-24T04:51:26;25.97;;;6.53;;
5591;SDS011;2818;49.790;9.958;2022-11-24T04:53:53;10.70;;;4.10;;
5591;SDS011;2818;49.790;9.958;2022-11-24T04:56:20;8.90;;;3.77;;
5591;SDS011;2818;49.790;9.958;2022-11-24T04:58:47;17.23;;;3.80;;
5591;SDS011;2818;49.790;9.958;2022-11-24T05:01:14;13.40;;;4.30;;
5591;SDS011;2818;49.790;9.958;2022-11-24T05:03:41;13.37;;;4.30;;
5591;SDS011;2818;49.790;9.958;2022-11-24T05:06:08;11.20;;;4.40;;
5591;SDS011;2818;49.790;9.958;2022-11-24T05:08:35;13.23;;;4.20;;
5591;SDS011;2818;49.790;9.958;2022-11-24T05:11:02;8.33;;;3.90;;
5591;SDS011;2818;49.790;9.958;2022-11-24T05:13:30;16.57;;;3.87;;
5591;SDS011;2818;49.790;9.958;2022-11-24T05:15:57;10.73;;;3.87;;
5591;SDS011;2818;49.790;9.958;2022-11-24T05:18:25;9.63;;;3.80;;
5591;SDS011;2818;49.790;9.958;2022-11-24T05:20:52;14.43;;;4.03;;
5591;SDS011;2818;49.790;9.958;2022-11-24T05:23:19;9.83;;;3.83;;
5591;SDS011;2818;49.790;9.958;2022-11-24T05:25:45;11.47;;;3.90;;
5591;SDS011;2818;49.790;9.958;2022-11-24T05:28:13;13.63;;;4.10;;
5591;SDS011;2818;49.790;9.958;2022-11-24T05:30:40;14.10;;;3.87;;
5591;SDS011;2818;49.790;9.958;2022-11-24T05:33:08;23.90;;;4.10;;
5591;SDS011;2818;49.790;9.958;2022-11-24T05:35:45;15.80;;;3.73;;
5591;SDS011;2818;49.790;9.958;2022-11-24T05:38:14;9.57;;;3.53;;
5591;SDS011;2818;49.790;9.958;2022-11-24T05:40:43;14.30;;;3.60;;
5591;SDS011;2818;49.790;9.958;2022-11-24T05:43:13;6.10;;;3.60;;
5591;SDS011;2818;49.790;9.958;2022-11-24T05:45:42;13.40;;;3.80;;
5591;SDS011;2818;49.790;9.958;2022-11-24T05:48:10;12.87;;;4.37;;
5591;SDS011;2818;49.790;9.958;2022-11-24T05:50:39;13.60;;;4.20;;
5591;SDS011;2818;49.790;9.958;2022-11-24T05:53:07;13.47;;;4.40;;
5591;SDS011;2818;49.790;9.958;2022-11-24T05:55:36;19.10;;;4.37;;
5591;SDS011;2818;49.790;9.958;2022-11-24T05:58:04;13.53;;;4.30;;
5591;SDS011;2818;49.790;9.958;2022-11-24T06:00:33;13.87;;;3.60;;
5591;SDS011;2818;49.790;9.958;2022-11-24T06:03:00;16.43;;;4.10;;
5591;SDS011;2818;49.790;9.958;2022-11-24T06:05:28;14.07;;;3.50;;
5591;SDS011;2818;49.790;9.958;2022-11-24T06:07:55;17.33;;;4.27;;
5591;SDS011;2818;49.790;9.958;2022-11-24T06:10:23;12.53;;;3.67;;
5591;SDS011;2818;49.790;9.958;2022-11-24T06:12:50;21.30;;;3.83;;
5591;SDS011;2818;49.790;9.958;2022-11-24T06:15:17;17.13;;;4.17;;
5591;SDS011;2818;49.790;9.958;2022-11-24T06:17:51;12.40;;;4.73;;
5591;SDS011;2818;49.790;9.958;2022-11-24T06:20:21;12.03;;;3.60;;
5591;SDS011;2818;49.790;9.958;2022-11-24T06:22:56;20.83;;;4.80;;
5591;SDS011;2818;49.790;9.958;2022-11-24T06:25:24;17.27;;;4.60;;
5591;SDS011;2818;49.790;9.958;2022-11-24T06:27:51;19.10;;;3.60;;
5591;SDS011;2818;49.790;9.958;2022-11-24T06:30:18;19.03;;;5.10;;
5591;SDS011;2818;49.790;9.958;2022-11-24T06:32:45;10.00;;;4.97;;
5591;SDS011;2818;49.790;9.958;2022-11-24T06:35:14;19.07;;;4.83;;
5591;SDS011;2818;49.790;9.958;2022-11-24T06:37:41;19.30;;;4.50;;
5591;SDS011;2818;49.790;9.958;2022-11-24T06:40:09;21.27;;;5.50;;
5591;SDS011;2818;49.790;9.958;2022-11-24T06:42:36;15.37;;;4.80;;
5591;SDS011;2818;49.790;9.958;2022-11-24T06:45:03;12.73;;;3.77;;
5591;SDS011;2818;49.790;9.958;2022-11-24T06:47:34;13.80;;;4.70;;
5591;SDS011;2818;49.790;9.958;2022-11-24T06:50:01;14.27;;;4.80;;
5591;SDS011;2818;49.790;9.958;2022-11-24T06:52:28;20.57;;;4.43;;
5591;SDS011;2818;49.790;9.958;2022-11-24T06:54:55;18.10;;;4.93;;
5591;SDS011;2818;49.790;9.958;2022-11-24T06:57:22;21.37;;;5.60;;
5591;SDS011;2818;49.790;9.958;2022-11-24T06:59:49;12.87;;;4.67;;
5591;SDS011;2818;49.790;9.958;2022-11-24T07:02:16;25.30;;;5.17;;
5591;SDS011;2818;49.790;9.958;2022-11-24T07:04:43;25.27;;;5.20;;
5591;SDS011;2818;49.790;9.958;2022-11-24T07:07:10;24.53;;;4.90;;
5591;SDS011;2818;49.790;9.958;2022-11-24T07:09:38;14.10;;;4.97;;
5591;SDS011;2818;49.790;9.958;2022-11-24T07:12:04;18.13;;;4.40;;
5591;SDS011;2818;49.790;9.958;2022-11-24T07:14:32;18.50;;;5.27;;
5591;SDS011;2818;49.790;9.958;2022-11-24T07:16:59;16.93;;;4.87;;
5591;SDS011;2818;49.790;9.958;2022-11-24T07:19:27;12.00;;;4.27;;
5591;SDS011;2818;49.790;9.958;2022-11-24T07:21:54;19.87;;;4.40;;
5591;SDS011;2818;49.790;9.958;2022-11-24T07:24:22;21.30;;;5.20;;
5591;SDS011;2818;49.790;9.958;2022-11-24T07:26:49;22.50;;;5.23;;
5591;SDS011;2818;49.790;9.958;2022-11-24T07:29:16;13.13;;;4.67;;
5591;SDS011;2818;49.790;9.958;2022-11-24T07:31:43;23.87;;;5.30;;
5591;SDS011;2818;49.790;9.958;2022-11-24T07:34:11;15.97;;;5.60;;
5591;SDS011;2818;49.790;9.958;2022-11-24T07:36:40;21.67;;;6.13;;
5591;SDS011;2818;49.790;9.958;2022-11-24T07:39:08;21.00;;;4.80;;
5591;SDS011;2818;49.790;9.958;2022-11-24T07:41:35;14.70;;;4.90;;
5591;SDS011;2818;49.790;9.958;2022-11-24T07:44:01;18.87;;;5.17;;
5591;SDS011;2818;49.790;9.958;2022-11-24T07:46:28;15.60;;;4.90;;
5591;SDS011;2818;49.790;9.958;2022-11-24T07:48:55;20.60;;;5.53;;
5591;SDS011;2818;49.790;9.958;2022-11-24T07:51:22;13.43;;;4.90;;
5591;SDS011;2818;49.790;9.958;2022-11-24T07:53:49;20.77;;;4.97;;
5591;SDS011;2818;49.790;9.958;2022-11-24T07:56:16;14.60;;;4.57;;
5591;SDS011;2818;49.790;9.958;2022-11-24T07:58:43;20.63;;;4.97;;
5591;SDS011;2818;49.790;9.958;2022-11-24T08:01:17;18.60;;;4.87;;
5591;SDS011;2818;49.790;9.958;2022-11-24T08:03:45;17.73;;;5.53;;
5591;SDS011;2818;49.790;9.958;2022-11-24T08:06:13;11.40;;;4.90;;
5591;SDS011;2818;49.790;9.958;2022-11-24T08:08:52;15.37;;;5.93;;
5591;SDS011;2818;49.790;9.958;2022-11-24T08:11:20;22.80;;;5.57;;
5591;SDS011;2818;49.790;9.958;2022-11-24T08:13:47;22.53;;;5.33;;
5591;SDS011;2818;49.790;9.958;2022-11-24T08:16:15;23.77;;;5.60;;
5591;SDS011;2818;49.790;9.958;2022-11-24T08:18:47;26.47;;;5.57;;
5591;SDS011;2818;49.790;9.958;2022-11-24T08:21:16;23.50;;;5.97;;
5591;SDS011;2818;49.790;9.958;2022-11-24T08:23:43;21.07;;;6.07;;
5591;SDS011;2818;49.790;9.958;2022-11-24T08:26:11;25.13;;;5.43;;
5591;SDS011;2818;49.790;9.958;2022-11-24T08:28:43;17.53;;;5.93;;
5591;SDS011;2818;49.790;9.958;2022-11-24T08:31:15;33.43;;;7.17;;
5591;SDS011;2818;49.790;9.958;2022-11-24T08:33:44;19.00;;;6.87;;
5591;SDS011;2818;49.790;9.958;2022-11-24T08:36:12;24.63;;;5.90;;
5591;SDS011;2818;49.790;9.958;2022-11-24T08:38:41;23.67;;;6.37;;
5591;SDS011;2818;49.790;9.958;2022-11-24T08:41:11;24.70;;;5.33;;
5591;SDS011;2818;49.790;9.958;2022-11-24T08:43:39;24.60;;;5.63;;
5591;SDS011;2818;49.790;9.958;2022-11-24T08:46:08;21.17;;;5.77;;
5591;SDS011;2818;49.790;9.958;2022-11-24T08:48:36;27.77;;;5.17;;
5591;SDS011;2818;49.790;9.958;2022-11-24T08:51:07;17.80;;;4.50;;
5591;SDS011;2818;49.790;9.958;2022-11-24T08:53:37;18.53;;;4.80;;
5591;SDS011;2818;49.790;9.958;2022-11-24T08:56:05;10.50;;;4.50;;
5591;SDS011;2818;49.790;9.958;2022-11-24T08:58:33;20.13;;;5.00;;
5591;SDS011;2818;49.790;9.958;2022-11-24T09:01:07;16.30;;;5.40;;
5591;SDS011;2818;49.790;9.958;2022-11-24T09:03:36;23.70;;;4.97;;
5591;SDS011;2818;49.790;9.958;2022-11-24T09:06:10;14.77;;;4.30;;
5591;SDS011;2818;49.790;9.958;2022-11-24T09:08:36;17.93;;;4.57;;
5591;SDS011;2818;49.790;9.958;2022-11-24T09:11:05;13.67;;;3.93;;
5591;SDS011;2818;49.790;9.958;2022-11-24T09:13:37;9.43;;;3.83;;
5591;SDS011;2818;49.790;9.958;2022-11-24T09:16:15;12.33;;;3.37;;
5591;SDS011;2818;49.790;9.958;2022-11-24T09:18:44;7.90;;;2.80;;
5591;SDS011;2818;49.790;9.958;2022-11-24T09:21:13;10.57;;;3.97;;
5591;SDS011;2818;49.790;9.958;2022-11-24T09:23:42;11.63;;;3.30;;
5591;SDS011;2818;49.790;9.958;2022-11-24T09:26:16;11.63;;;3.23;;
5591;SDS011;2818;49.790;9.958;2022-11-24T09:28:45;8.90;;;3.40;;
5591;SDS011;2818;49.790;9.958;2022-11-24T09:31:14;13.83;;;3.37;;
5591;SDS011;2818;49.790;9.958;2022-11-24T09:33:43;10.60;;;3.40;;
5591;SDS011;2818;49.790;9.958;2022-11-24T09:36:10;6.23;;;3.57;;
5591;SDS011;2818;49.790;9.958;2022-11-24T09:38:37;9.80;;;2.93;;
5591;SDS011;2818;49.790;9.958;2022-11-24T09:43:44;12.57;;;4.33;;
5591;SDS011;2818;49.790;9.958;2022-11-24T09:46:29;9.87;;;3.00;;
5591;SDS011;2818;49.790;9.958;2022-11-24T09:49:11;8.40;;;2.60;;
5591;SDS011;2818;49.790;9.958;2022-11-24T09:51:43;14.93;;;3.37;;
5591;SDS011;2818;49.790;9.958;2022-11-24T09:54:15;6.83;;;3.00;;
5591;SDS011;2818;49.790;9.958;2022-11-24T09:56:46;6.33;;;2.70;;
5591;SDS011;2818;49.790;9.958;2022-11-24T09:59:15;10.23;;;2.63;;
5591;SDS011;2818;49.790;9.958;2022-11-24T10:01:43;8.13;;;2.83;;
5591;SDS011;2818;49.790;9.958;2022-11-24T10:04:18;10.80;;;5.13;;
5591;SDS011;2818;49.790;9.958;2022-11-24T10:06:58;13.93;;;3.20;;
5591;SDS011;2818;49.790;9.958;2022-11-24T10:23:32;2.43;;;2.10;;
5591;SDS011;2818;49.790;9.958;2022-11-24T10:26:15;7.43;;;4.80;;
5591;SDS011;2818;49.790;9.958;2022-11-24T10:28:48;8.53;;;2.57;;
5591;SDS011;2818;49.790;9.958;2022-11-24T10:33:46;4.10;;;2.30;;
5591;SDS011;2818;49.790;9.958;2022-11-24T10:36:17;5.83;;;2.30;;
5591;SDS011;2818;49.790;9.958;2022-11-24T10:38:53;4.27;;;2.00;;
5591;SDS011;2818;49.790;9.958;2022-11-24T10:41:45;5.70;;;2.30;;
5591;SDS011;2818;49.790;9.958;2022-11-24T10:44:19;4.93;;;2.33;;
5591;SDS011;2818;49.790;9.958;2022-11-24T10:46:46;8.20;;;3.00;;
5591;SDS011;2818;49.790;9.958;2022-11-24T10:49:18;5.23;;;1.70;;
5591;SDS011;2818;49.790;9.958;2022-11-24T10:52:02;5.03;;;2.27;;
5591;SDS011;2818;49.790;9.958;2022-11-24T10:54:31;4.03;;;2.10;;
5591;SDS011;2818;49.790;9.958;2022-11-24T10:57:00;3.57;;;2.93;;
5591;SDS011;2818;49.790;9.958;2022-11-24T11:01:57;2.30;;;1.60;;
5591;SDS011;2818;49.790;9.958;2022-11-24T11:04:32;4.47;;;2.10;;
5591;SDS011;2818;49.790;9.958;2022-11-24T11:07:20;4.03;;;2.03;;
5591;SDS011;2818;49.790;9.958;2022-11-24T11:09:49;10.03;;;2.30;;
5591;SDS011;2818;49.790;9.958;2022-11-24T11:12:20;5.30;;;2.20;;
5591;SDS011;2818;49.790;9.958;2022-11-24T11:15:22;4.40;;;2.03;;
5591;SDS011;2818;49.790;9.958;2022-11-24T11:17:54;5.50;;;1.83;;
5591;SDS011;2818;49.790;9.958;2022-11-24T11:20:33;3.60;;;1.80;;
5591;SDS011;2818;49.790;9.958;2022-11-24T11:23:01;5.67;;;2.30;;
5591;SDS011;2818;49.790;9.958;2022-11-24T11:25:42;5.57;;;2.30;;
5591;SDS011;2818;49.790;9.958;2022-11-24T11:28:21;4.50;;;2.10;;
5591;SDS011;2818;49.790;9.958;2022-11-24T11:30:55;3.07;;;2.30;;
5591;SDS011;2818;49.790;9.958;2022-11-24T11:33:54;5.27;;;2.43;;
5591;SDS011;2818;49.790;9.958;2022-11-24T11:36:50;7.20;;;2.40;;
5591;SDS011;2818;49.790;9.958;2022-11-24T11:39:28;9.57;;;2.73;;
5591;SDS011;2818;49.790;9.958;2022-11-24T11:42:11;10.43;;;2.20;;
5591;SDS011;2818;49.790;9.958;2022-11-24T11:45:30;3.33;;;1.73;;
5591;SDS011;2818;49.790;9.958;2022-11-24T11:50:57;4.77;;;1.97;;
5591;SDS011;2818;49.790;9.958;2022-11-24T11:56:28;3.27;;;1.77;;
5591;SDS011;2818;49.790;9.958;2022-11-24T11:59:02;2.80;;;1.67;;
5591;SDS011;2818;49.790;9.958;2022-11-24T12:35:02;3.40;;;1.57;;
5591;SDS011;2818;49.790;9.958;2022-11-24T12:38:01;7.57;;;2.60;;
5591;SDS011;2818;49.790;9.958;2022-11-24T12:43:35;9.43;;;2.60;;
5591;SDS011;2818;49.790;9.958;2022-11-24T12:46:06;6.00;;;2.47;;
5591;SDS011;2818;49.790;9.958;2022-11-24T12:52:04;6.03;;;2.60;;
5591;SDS011;2818;49.790;9.958;2022-11-24T12:54:38;7.00;;;2.13;;
5591;SDS011;2818;49.790;9.958;2022-11-24T13:08:31;8.57;;;2.33;;
5591;SDS011;2818;49.790;9.958;2022-11-24T13:13:55;7.23;;;2.20;;
5591;SDS011;2818;49.790;9.958;2022-11-24T13:16:27;6.33;;;2.00;;
5591;SDS011;2818;49.790;9.958;2022-11-24T13:19:16;7.87;;;2.40;;
5591;SDS011;2818;49.790;9.958;2022-11-24T13:24:23;4.17;;;2.23;;
5591;SDS011;2818;49.790;9.958;2022-11-24T13:26:53;8.87;;;2.77;;
5591;SDS011;2818;49.790;9.958;2022-11-24T13:29:45;4.50;;;2.43;;
5591;SDS011;2818;49.790;9.958;2022-11-24T13:37:18;3.90;;;2.27;;
5591;SDS011;2818;49.790;9.958;2022-11-24T13:45:57;5.97;;;2.73;;
5591;SDS011;2818;49.790;9.958;2022-11-24T13:55:58;4.50;;;2.00;;
5591;SDS011;2818;49.790;9.958;2022-11-24T14:01:04;5.13;;;2.10;;
5591;SDS011;2818;49.790;9.958;2022-11-24T14:07:19;6.20;;;2.20;;
5591;SDS011;2818;49.790;9.958;2022-11-24T14:14:50;5.23;;;2.70;;
5591;SDS011;2818;49.790;9.958;2022-11-24T14:17:21;3.30;;;2.33;;
5591;SDS011;2818;49.790;9.958;2022-11-24T14:19:50;9.93;;;2.60;;
5591;SDS011;2818;49.790;9.958;2022-11-24T14:22:20;5.17;;;2.70;;
5591;SDS011;2818;49.790;9.958;2022-11-24T14:25:04;7.50;;;2.17;;
5591;SDS011;2818;49.790;9.958;2022-11-24T14:27:43;8.03;;;2.30;;
5591;SDS011;2818;49.790;9.958;2022-11-24T14:32:39;6.80;;;2.90;;
5591;SDS011;2818;49.790;9.958;2022-11-24T14:35:25;9.37;;;2.97;;
5591;SDS011;2818;49.790;9.958;2022-11-24T14:37:52;3.33;;;2.20;;
5591;SDS011;2818;49.790;9.958;2022-11-24T14:43:28;6.57;;;2.50;;
5591;SDS011;2818;49.790;9.958;2022-11-24T14:45:58;7.93;;;2.97;;
5591;SDS011;2818;49.790;9.958;2022-11-24T14:48:26;6.43;;;2.90;;
5591;SDS011;2818;49.790;9.958;2022-11-24T14:51:20;5.93;;;2.70;;
5591;SDS011;2818;49.790;9.958;2022-11-24T14:53:54;6.03;;;2.63;;
5591;SDS011;2818;49.790;9.958;2022-11-24T14:58:57;8.20;;;3.80;;
5591;SDS011;2818;49.790;9.958;2022-11-24T15:14:50;8.00;;;3.30;;
5591;SDS011;2818;49.790;9.958;2022-11-24T15:17:23;5.50;;;3.17;;
5591;SDS011;2818;49.790;9.958;2022-11-24T15:20:07;7.17;;;3.20;;
5591;SDS011;2818;49.790;9.958;2022-11-24T15:22:40;7.87;;;3.87;;
5591;SDS011;2818;49.790;9.958;2022-11-24T15:27:54;5.87;;;3.60;;
5591;SDS011;2818;49.790;9.958;2022-11-24T15:30:21;9.83;;;3.50;;
5591;SDS011;2818;49.790;9.958;2022-11-24T15:32:50;5.13;;;3.10;;
5591;SDS011;2818;49.790;9.958;2022-11-24T15:35:25;6.03;;;3.30;;
5591;SDS011;2818;49.790;9.958;2022-11-24T15:37:54;4.63;;;3.10;;
5591;SDS011;2818;49.790;9.958;2022-11-24T15:40:21;5.47;;;2.80;;
5591;SDS011;2818;49.790;9.958;2022-11-24T15:42:49;9.50;;;3.80;;
5591;SDS011;2818;49.790;9.958;2022-11-24T15:45:18;6.40;;;3.60;;
5591;SDS011;2818;49.790;9.958;2022-11-24T15:47:45;6.40;;;3.60;;
5591;SDS011;2818;49.790;9.958;2022-11-24T15:50:13;3.50;;;3.07;;
5591;SDS011;2818;49.790;9.958;2022-11-24T15:52:40;9.00;;;3.43;;
5591;SDS011;2818;49.790;9.958;2022-11-24T15:55:11;6.57;;;3.43;;
5591;SDS011;2818;49.790;9.958;2022-11-24T15:57:50;14.13;;;3.77;;
5591;SDS011;2818;49.790;9.958;2022-11-24T16:00:18;7.57;;;3.63;;
5591;SDS011;2818;49.790;9.958;2022-11-24T16:02:46;12.77;;;3.83;;
5591;SDS011;2818;49.790;9.958;2022-11-24T16:05:14;9.10;;;3.50;;
5591;SDS011;2818;49.790;9.958;2022-11-24T16:07:41;10.97;;;4.87;;
5591;SDS011;2818;49.790;9.958;2022-11-24T16:10:30;7.00;;;3.30;;
5591;SDS011;2818;49.790;9.958;2022-11-24T16:13:00;10.47;;;3.37;;
5591;SDS011;2818;49.790;9.958;2022-11-24T16:15:27;4.07;;;3.00;;
5591;SDS011;2818;49.790;9.958;2022-11-24T16:17:54;6.67;;;3.50;;
5591;SDS011;2818;49.790;9.958;2022-11-24T16:20:21;7.67;;;3.90;;
5591;SDS011;2818;49.790;9.958;2022-11-24T16:22:48;9.43;;;4.00;;
5591;SDS011;2818;49.790;9.958;2022-11-24T16:25:15;8.17;;;4.50;;
5591;SDS011;2818;49.790;9.958;2022-11-24T16:27:42;6.20;;;3.33;;
5591;SDS011;2818;49.790;9.958;2022-11-24T16:30:10;4.97;;;4.30;;
5591;SDS011;2818;49.790;9.958;2022-11-24T16:32:38;9.77;;;4.17;;
5591;SDS011;2818;49.790;9.958;2022-11-24T16:35:05;9.53;;;6.70;;
5591;SDS011;2818;49.790;9.958;2022-11-24T16:37:32;11.83;;;4.60;;
5591;SDS011;2818;49.790;9.958;2022-11-24T16:39:59;12.40;;;5.07;;
5591;SDS011;2818;49.790;9.958;2022-11-24T16:42:28;7.03;;;3.13;;
5591;SDS011;2818;49.790;9.958;2022-11-24T16:44:54;13.10;;;5.63;;
5591;SDS011;2818;49.790;9.958;2022-11-24T16:47:21;8.67;;;5.87;;
5591;SDS011;2818;49.790;9.958;2022-11-24T16:49:49;9.07;;;4.70;;
5591;SDS011;2818;49.790;9.958;2022-11-24T16:52:15;7.70;;;4.70;;
5591;SDS011;2818;49.790;9.958;2022-11-24T16:54:44;7.57;;;3.93;;
5591;SDS011;2818;49.790;9.958;2022-11-24T16:57:13;11.60;;;4.50;;
5591;SDS011;2818;49.790;9.958;2022-11-24T16:59:40;8.20;;;3.93;;
5591;SDS011;2818;49.790;9.958;2022-11-24T17:02:11;7.87;;;3.93;;
5591;SDS011;2818;49.790;9.958;2022-11-24T17:04:39;9.37;;;4.40;;
5591;SDS011;2818;49.790;9.958;2022-11-24T17:07:06;10.20;;;4.23;;
5591;SDS011;2818;49.790;9.958;2022-11-24T17:09:33;6.20;;;3.93;;
5591;SDS011;2818;49.790;9.958;2022-11-24T17:12:06;10.70;;;3.90;;
5591;SDS011;2818;49.790;9.958;2022-11-24T17:14:33;11.47;;;4.37;;
5591;SDS011;2818;49.790;9.958;2022-11-24T17:17:00;10.23;;;3.80;;
5591;SDS011;2818;49.790;9.958;2022-11-24T17:19:28;13.70;;;8.50;;
5591;SDS011;2818;49.790;9.958;2022-11-24T17:21:57;14.93;;;6.30;;
5591;SDS011;2818;49.790;9.958;2022-11-24T17:24:24;15.77;;;7.00;;
5591;SDS011;2818;49.790;9.958;2022-11-24T17:26:51;10.17;;;6.03;;
5591;SDS011;2818;49.790;9.958;2022-11-24T17:29:18;12.23;;;6.03;;
5591;SDS011;2818;49.790;9.958;2022-11-24T17:31:45;10.20;;;6.87;;
5591;SDS011;2818;49.790;9.958;2022-11-24T17:34:12;10.83;;;5.93;;
5591;SDS011;2818;49.790;9.958;2022-11-24T17:36:39;18.40;;;9.20;;
5591;SDS011;2818;49.790;9.958;2022-11-24T17:39:09;14.90;;;10.87;;
5591;SDS011;2818;49.790;9.958;2022-11-24T17:41:37;11.60;;;6.77;;
5591;SDS011;2818;49.790;9.958;2022-11-24T17:44:04;15.87;;;6.77;;
5591;SDS011;2818;49.790;9.958;2022-11-24T17:46:33;12.30;;;7.97;;
5591;SDS011;2818;49.790;9.958;2022-11-24T17:49:02;14.13;;;8.97;;